sensor_id;sensor_type;location;lat;lon;timestamp;P1;durP1;ratioP1;P2;durP2;ratioP2
71317;SDS011;59106;44.706;18.310;2023-07-28T00:02:11;8.30;;;3.60;;
71317;SDS011;59106;44.706;18.310;2023-07-28T00:04:37;7.57;;;3.25;;
71317;SDS011;59106;44.706;18.310;2023-07-28T00:07:03;9.03;;;3.50;;
71317;SDS011;59106;44.706;18.310;2023-07-28T00:09:29;8.30;;;3.20;;
71317;SDS011;59106;44.706;18.310;2023-07-28T00:11:59;7.65;;;3.30;;
71317;SDS011;59106;44.706;18.310;2023-07-28T00:14:26;9.45;;;3.38;;
71317;SDS011;59106;44.706;18.310;2023-07-28T00:16:52;7.75;;;3.38;;
71317;SDS011;59106;44.706;18.310;2023-07-28T00:19:19;8.30;;;3.70;;
71317;SDS011;59106;44.706;18.310;2023-07-28T00:21:50;7.80;;;3.08;;
71317;SDS011;59106;44.706;18.310;2023-07-28T00:24:16;7.10;;;3.05;;
71317;SDS011;59106;44.706;18.310;2023-07-28T00:26:42;8.15;;;3.35;;
71317;SDS011;59106;44.706;18.310;2023-07-28T00:29:08;9.38;;;3.30;;
71317;SDS011;59106;44.706;18.310;2023-07-28T00:31:34;7.17;;;3.03;;
71317;SDS011;59106;44.706;18.310;2023-07-28T00:34:01;9.10;;;3.55;;
71317;SDS011;59106;44.706;18.310;2023-07-28T00:36:28;10.10;;;4.03;;
71317;SDS011;59106;44.706;18.310;2023-07-28T00:38:54;9.05;;;3.85;;
71317;SDS011;59106;44.706;18.310;2023-07-28T00:41:20;8.23;;;3.65;;
71317;SDS011;59106;44.706;18.310;2023-07-28T00:43:47;11.07;;;3.70;;
71317;SDS011;59106;44.706;18.310;2023-07-28T00:46:13;8.05;;;3.38;;
71317;SDS011;59106;44.706;18.310;2023-07-28T00:48:41;7.97;;;3.50;;
71317;SDS011;59106;44.706;18.310;2023-07-28T00:51:08;8.05;;;3.70;;
71317;SDS011;59106;44.706;18.310;2023-07-28T00:53:35;8.18;;;3.45;;
71317;SDS011;59106;44.706;18.310;2023-07-28T00:56:02;9.83;;;3.90;;
71317;SDS011;59106;44.706;18.310;2023-07-28T00:58:29;8.48;;;3.42;;
71317;SDS011;59106;44.706;18.310;2023-07-28T01:00:55;9.00;;;3.85;;
71317;SDS011;59106;44.706;18.310;2023-07-28T01:03:21;9.23;;;3.85;;
71317;SDS011;59106;44.706;18.310;2023-07-28T01:09:01;10.77;;;4.20;;
71317;SDS011;59106;44.706;18.310;2023-07-28T01:11:06;16.15;;;4.40;;
71317;SDS011;59106;44.706;18.310;2023-07-28T01:13:32;10.13;;;4.20;;
71317;SDS011;59106;44.706;18.310;2023-07-28T01:15:58;9.55;;;3.85;;
71317;SDS011;59106;44.706;18.310;2023-07-28T01:18:27;11.47;;;3.93;;
71317;SDS011;59106;44.706;18.310;2023-07-28T01:20:54;9.18;;;3.83;;
71317;SDS011;59106;44.706;18.310;2023-07-28T01:28:19;9.95;;;3.83;;
71317;SDS011;59106;44.706;18.310;2023-07-28T01:30:45;9.83;;;4.03;;
71317;SDS011;59106;44.706;18.310;2023-07-28T01:33:12;11.65;;;4.35;;
71317;SDS011;59106;44.706;18.310;2023-07-28T01:35:38;11.68;;;5.30;;
71317;SDS011;59106;44.706;18.310;2023-07-28T01:38:04;10.82;;;5.13;;
71317;SDS011;59106;44.706;18.310;2023-07-28T01:40:30;9.07;;;4.67;;
71317;SDS011;59106;44.706;18.310;2023-07-28T01:42:57;14.20;;;4.75;;
71317;SDS011;59106;44.706;18.310;2023-07-28T01:45:23;11.40;;;5.75;;
71317;SDS011;59106;44.706;18.310;2023-07-28T01:47:49;10.93;;;4.90;;
71317;SDS011;59106;44.706;18.310;2023-07-28T01:50:15;14.13;;;6.83;;
71317;SDS011;59106;44.706;18.310;2023-07-28T01:52:42;12.00;;;5.43;;
71317;SDS011;59106;44.706;18.310;2023-07-28T01:55:08;15.20;;;6.70;;
71317;SDS011;59106;44.706;18.310;2023-07-28T01:57:35;14.52;;;6.53;;
71317;SDS011;59106;44.706;18.310;2023-07-28T02:00:01;13.40;;;6.40;;
71317;SDS011;59106;44.706;18.310;2023-07-28T02:02:29;14.32;;;6.18;;
71317;SDS011;59106;44.706;18.310;2023-07-28T02:04:54;12.88;;;5.47;;
71317;SDS011;59106;44.706;18.310;2023-07-28T02:14:04;9.10;;;4.28;;
71317;SDS011;59106;44.706;18.310;2023-07-28T02:16:30;10.88;;;4.80;;
71317;SDS011;59106;44.706;18.310;2023-07-28T02:18:57;9.88;;;4.60;;
71317;SDS011;59106;44.706;18.310;2023-07-28T02:21:23;11.00;;;4.60;;
71317;SDS011;59106;44.706;18.310;2023-07-28T02:23:48;11.10;;;4.93;;
71317;SDS011;59106;44.706;18.310;2023-07-28T02:26:15;11.50;;;4.80;;
71317;SDS011;59106;44.706;18.310;2023-07-28T02:28:40;9.45;;;4.40;;
71317;SDS011;59106;44.706;18.310;2023-07-28T02:31:06;10.83;;;4.63;;
71317;SDS011;59106;44.706;18.310;2023-07-28T02:33:32;10.45;;;5.25;;
71317;SDS011;59106;44.706;18.310;2023-07-28T02:36:01;11.70;;;4.70;;
71317;SDS011;59106;44.706;18.310;2023-07-28T02:38:27;9.63;;;4.33;;
71317;SDS011;59106;44.706;18.310;2023-07-28T02:40:53;11.57;;;4.65;;
71317;SDS011;59106;44.706;18.310;2023-07-28T02:43:18;11.75;;;4.55;;
71317;SDS011;59106;44.706;18.310;2023-07-28T02:45:48;9.80;;;4.57;;
71317;SDS011;59106;44.706;18.310;2023-07-28T02:48:13;9.70;;;4.68;;
71317;SDS011;59106;44.706;18.310;2023-07-28T02:50:44;10.25;;;4.40;;
71317;SDS011;59106;44.706;18.310;2023-07-28T02:53:10;11.07;;;4.60;;
71317;SDS011;59106;44.706;18.310;2023-07-28T02:55:40;11.20;;;4.63;;
71317;SDS011;59106;44.706;18.310;2023-07-28T02:58:06;10.40;;;4.78;;
71317;SDS011;59106;44.706;18.310;2023-07-28T03:00:31;9.85;;;4.68;;
71317;SDS011;59106;44.706;18.310;2023-07-28T03:02:57;10.63;;;4.83;;
71317;SDS011;59106;44.706;18.310;2023-07-28T03:05:23;10.52;;;5.30;;
71317;SDS011;59106;44.706;18.310;2023-07-28T03:07:48;11.37;;;5.00;;
71317;SDS011;59106;44.706;18.310;2023-07-28T03:10:14;10.52;;;5.15;;
71317;SDS011;59106;44.706;18.310;2023-07-28T03:12:42;11.05;;;5.10;;
71317;SDS011;59106;44.706;18.310;2023-07-28T03:15:08;12.27;;;4.97;;
71317;SDS011;59106;44.706;18.310;2023-07-28T03:17:34;14.77;;;6.07;;
71317;SDS011;59106;44.706;18.310;2023-07-28T03:19:59;14.07;;;5.57;;
71317;SDS011;59106;44.706;18.310;2023-07-28T03:22:25;11.43;;;6.00;;
71317;SDS011;59106;44.706;18.310;2023-07-28T03:24:51;12.20;;;5.50;;
71317;SDS011;59106;44.706;18.310;2023-07-28T03:27:17;12.73;;;5.78;;
71317;SDS011;59106;44.706;18.310;2023-07-28T03:29:43;12.87;;;5.40;;
71317;SDS011;59106;44.706;18.310;2023-07-28T03:32:08;13.30;;;5.78;;
71317;SDS011;59106;44.706;18.310;2023-07-28T03:34:34;14.93;;;6.15;;
71317;SDS011;59106;44.706;18.310;2023-07-28T03:37:00;11.90;;;5.47;;
71317;SDS011;59106;44.706;18.310;2023-07-28T03:39:26;11.82;;;5.28;;
71317;SDS011;59106;44.706;18.310;2023-07-28T03:41:52;10.30;;;5.20;;
71317;SDS011;59106;44.706;18.310;2023-07-28T03:44:18;11.25;;;5.60;;
71317;SDS011;59106;44.706;18.310;2023-07-28T03:46:44;11.48;;;5.70;;
71317;SDS011;59106;44.706;18.310;2023-07-28T03:49:10;11.27;;;5.00;;
71317;SDS011;59106;44.706;18.310;2023-07-28T03:51:36;11.38;;;5.05;;
71317;SDS011;59106;44.706;18.310;2023-07-28T03:54:02;9.50;;;5.10;;
71317;SDS011;59106;44.706;18.310;2023-07-28T03:56:28;10.07;;;4.70;;
71317;SDS011;59106;44.706;18.310;2023-07-28T03:58:54;11.23;;;5.13;;
71317;SDS011;59106;44.706;18.310;2023-07-28T04:01:19;12.03;;;4.70;;
71317;SDS011;59106;44.706;18.310;2023-07-28T04:03:47;10.57;;;5.40;;
71317;SDS011;59106;44.706;18.310;2023-07-28T04:06:13;13.55;;;5.25;;
71317;SDS011;59106;44.706;18.310;2023-07-28T04:08:39;12.20;;;5.55;;
71317;SDS011;59106;44.706;18.310;2023-07-28T04:11:05;12.50;;;5.07;;
71317;SDS011;59106;44.706;18.310;2023-07-28T04:13:31;13.63;;;6.95;;
71317;SDS011;59106;44.706;18.310;2023-07-28T04:15:57;14.23;;;5.50;;
71317;SDS011;59106;44.706;18.310;2023-07-28T04:18:23;11.25;;;4.97;;
71317;SDS011;59106;44.706;18.310;2023-07-28T04:20:48;11.50;;;5.23;;
71317;SDS011;59106;44.706;18.310;2023-07-28T04:23:14;11.80;;;5.22;;
71317;SDS011;59106;44.706;18.310;2023-07-28T04:25:40;13.80;;;5.53;;
71317;SDS011;59106;44.706;18.310;2023-07-28T04:28:06;13.55;;;6.10;;
71317;SDS011;59106;44.706;18.310;2023-07-28T04:30:32;14.15;;;6.10;;
71317;SDS011;59106;44.706;18.310;2023-07-28T04:32:58;12.30;;;6.90;;
71317;SDS011;59106;44.706;18.310;2023-07-28T04:35:23;14.50;;;6.90;;
71317;SDS011;59106;44.706;18.310;2023-07-28T04:37:49;15.80;;;7.10;;
71317;SDS011;59106;44.706;18.310;2023-07-28T04:40:15;19.80;;;8.80;;
71317;SDS011;59106;44.706;18.310;2023-07-28T04:42:41;19.73;;;9.65;;
71317;SDS011;59106;44.706;18.310;2023-07-28T04:45:07;17.90;;;10.43;;
71317;SDS011;59106;44.706;18.310;2023-07-28T04:47:33;14.80;;;7.90;;
71317;SDS011;59106;44.706;18.310;2023-07-28T04:49:59;16.60;;;8.57;;
71317;SDS011;59106;44.706;18.310;2023-07-28T04:52:25;21.30;;;12.02;;
71317;SDS011;59106;44.706;18.310;2023-07-28T04:54:51;19.43;;;9.60;;
71317;SDS011;59106;44.706;18.310;2023-07-28T04:57:17;19.77;;;9.93;;
71317;SDS011;59106;44.706;18.310;2023-07-28T04:59:44;16.58;;;9.50;;
71317;SDS011;59106;44.706;18.310;2023-07-28T05:02:10;22.30;;;13.20;;
71317;SDS011;59106;44.706;18.310;2023-07-28T05:04:36;18.45;;;8.90;;
71317;SDS011;59106;44.706;18.310;2023-07-28T05:07:03;17.13;;;9.45;;
71317;SDS011;59106;44.706;18.310;2023-07-28T05:09:28;16.67;;;7.90;;
71317;SDS011;59106;44.706;18.310;2023-07-28T05:11:54;18.17;;;8.05;;
71317;SDS011;59106;44.706;18.310;2023-07-28T05:14:20;15.63;;;7.80;;
71317;SDS011;59106;44.706;18.310;2023-07-28T05:16:46;14.10;;;8.25;;
71317;SDS011;59106;44.706;18.310;2023-07-28T05:19:14;19.40;;;8.43;;
71317;SDS011;59106;44.706;18.310;2023-07-28T05:21:40;15.18;;;8.70;;
71317;SDS011;59106;44.706;18.310;2023-07-28T05:24:06;17.77;;;9.17;;
71317;SDS011;59106;44.706;18.310;2023-07-28T05:26:32;16.00;;;9.20;;
71317;SDS011;59106;44.706;18.310;2023-07-28T05:28:57;36.05;;;16.73;;
71317;SDS011;59106;44.706;18.310;2023-07-28T05:31:23;20.77;;;11.80;;
71317;SDS011;59106;44.706;18.310;2023-07-28T05:33:49;15.23;;;8.47;;
71317;SDS011;59106;44.706;18.310;2023-07-28T05:36:15;16.98;;;9.05;;
71317;SDS011;59106;44.706;18.310;2023-07-28T05:38:41;14.80;;;7.87;;
71317;SDS011;59106;44.706;18.310;2023-07-28T05:41:07;17.35;;;8.05;;
71317;SDS011;59106;44.706;18.310;2023-07-28T05:43:33;21.83;;;9.95;;
71317;SDS011;59106;44.706;18.310;2023-07-28T05:45:59;19.73;;;8.83;;
71317;SDS011;59106;44.706;18.310;2023-07-28T05:48:25;17.63;;;9.38;;
71317;SDS011;59106;44.706;18.310;2023-07-28T05:50:51;17.60;;;9.45;;
71317;SDS011;59106;44.706;18.310;2023-07-28T05:53:19;23.92;;;10.27;;
71317;SDS011;59106;44.706;18.310;2023-07-28T05:55:46;25.85;;;10.57;;
71317;SDS011;59106;44.706;18.310;2023-07-28T05:58:12;20.23;;;9.67;;
71317;SDS011;59106;44.706;18.310;2023-07-28T06:00:39;29.65;;;16.98;;
71317;SDS011;59106;44.706;18.310;2023-07-28T06:03:15;27.85;;;13.40;;
71317;SDS011;59106;44.706;18.310;2023-07-28T06:05:41;25.83;;;11.85;;
71317;SDS011;59106;44.706;18.310;2023-07-28T06:08:07;22.77;;;11.40;;
71317;SDS011;59106;44.706;18.310;2023-07-28T06:10:34;24.23;;;11.57;;
71317;SDS011;59106;44.706;18.310;2023-07-28T06:13:00;24.48;;;12.00;;
71317;SDS011;59106;44.706;18.310;2023-07-28T06:15:26;25.73;;;13.63;;
71317;SDS011;59106;44.706;18.310;2023-07-28T06:17:51;31.83;;;13.80;;
71317;SDS011;59106;44.706;18.310;2023-07-28T06:20:18;47.90;;;21.42;;
71317;SDS011;59106;44.706;18.310;2023-07-28T06:22:43;26.92;;;12.95;;
71317;SDS011;59106;44.706;18.310;2023-07-28T06:25:09;24.50;;;11.40;;
71317;SDS011;59106;44.706;18.310;2023-07-28T06:27:35;21.88;;;10.98;;
71317;SDS011;59106;44.706;18.310;2023-07-28T06:30:02;23.77;;;14.13;;
71317;SDS011;59106;44.706;18.310;2023-07-28T06:32:27;25.33;;;13.27;;
71317;SDS011;59106;44.706;18.310;2023-07-28T06:34:54;28.37;;;14.00;;
71317;SDS011;59106;44.706;18.310;2023-07-28T06:37:19;23.30;;;12.00;;
71317;SDS011;59106;44.706;18.310;2023-07-28T06:39:45;21.80;;;10.45;;
71317;SDS011;59106;44.706;18.310;2023-07-28T06:42:11;31.67;;;17.07;;
71317;SDS011;59106;44.706;18.310;2023-07-28T06:44:37;25.75;;;14.45;;
71317;SDS011;59106;44.706;18.310;2023-07-28T06:47:03;32.28;;;18.50;;
71317;SDS011;59106;44.706;18.310;2023-07-28T06:49:29;17.07;;;9.33;;
71317;SDS011;59106;44.706;18.310;2023-07-28T06:51:55;19.50;;;9.52;;
71317;SDS011;59106;44.706;18.310;2023-07-28T06:54:21;16.90;;;8.90;;
71317;SDS011;59106;44.706;18.310;2023-07-28T06:56:47;18.58;;;10.43;;
71317;SDS011;59106;44.706;18.310;2023-07-28T06:59:12;19.85;;;9.00;;
71317;SDS011;59106;44.706;18.310;2023-07-28T07:01:38;18.77;;;9.87;;
71317;SDS011;59106;44.706;18.310;2023-07-28T07:04:04;15.05;;;8.60;;
71317;SDS011;59106;44.706;18.310;2023-07-28T07:06:31;20.02;;;8.95;;
71317;SDS011;59106;44.706;18.310;2023-07-28T07:08:57;19.95;;;11.10;;
71317;SDS011;59106;44.706;18.310;2023-07-28T07:11:23;14.33;;;8.33;;
71317;SDS011;59106;44.706;18.310;2023-07-28T07:13:49;18.50;;;9.25;;
71317;SDS011;59106;44.706;18.310;2023-07-28T07:16:15;15.60;;;8.57;;
71317;SDS011;59106;44.706;18.310;2023-07-28T07:18:45;17.30;;;9.23;;
71317;SDS011;59106;44.706;18.310;2023-07-28T07:21:11;17.00;;;8.80;;
71317;SDS011;59106;44.706;18.310;2023-07-28T07:23:37;19.03;;;10.07;;
71317;SDS011;59106;44.706;18.310;2023-07-28T07:26:03;18.83;;;9.30;;
71317;SDS011;59106;44.706;18.310;2023-07-28T07:28:29;21.02;;;11.38;;
71317;SDS011;59106;44.706;18.310;2023-07-28T07:30:55;18.08;;;8.73;;
71317;SDS011;59106;44.706;18.310;2023-07-28T07:33:21;20.43;;;9.93;;
71317;SDS011;59106;44.706;18.310;2023-07-28T07:35:47;19.52;;;9.60;;
71317;SDS011;59106;44.706;18.310;2023-07-28T07:38:13;19.25;;;10.88;;
71317;SDS011;59106;44.706;18.310;2023-07-28T07:40:38;19.00;;;10.20;;
71317;SDS011;59106;44.706;18.310;2023-07-28T07:43:05;21.63;;;11.00;;
71317;SDS011;59106;44.706;18.310;2023-07-28T07:45:31;15.30;;;9.30;;
71317;SDS011;59106;44.706;18.310;2023-07-28T07:47:57;18.33;;;9.10;;
71317;SDS011;59106;44.706;18.310;2023-07-28T07:50:23;16.23;;;9.23;;
71317;SDS011;59106;44.706;18.310;2023-07-28T07:52:49;17.35;;;9.95;;
71317;SDS011;59106;44.706;18.310;2023-07-28T07:55:15;20.58;;;10.00;;
71317;SDS011;59106;44.706;18.310;2023-07-28T07:57:41;21.20;;;12.00;;
71317;SDS011;59106;44.706;18.310;2023-07-28T08:00:07;16.95;;;10.23;;
71317;SDS011;59106;44.706;18.310;2023-07-28T08:02:34;19.42;;;9.93;;
71317;SDS011;59106;44.706;18.310;2023-07-28T08:05:00;20.10;;;10.23;;
71317;SDS011;59106;44.706;18.310;2023-07-28T08:07:26;29.90;;;18.47;;
71317;SDS011;59106;44.706;18.310;2023-07-28T08:09:52;23.05;;;14.05;;
71317;SDS011;59106;44.706;18.310;2023-07-28T08:12:18;19.58;;;11.20;;
71317;SDS011;59106;44.706;18.310;2023-07-28T08:14:44;17.60;;;10.40;;
71317;SDS011;59106;44.706;18.310;2023-07-28T08:17:12;18.25;;;8.75;;
71317;SDS011;59106;44.706;18.310;2023-07-28T08:19:38;18.88;;;8.75;;
71317;SDS011;59106;44.706;18.310;2023-07-28T08:22:04;18.30;;;9.70;;
71317;SDS011;59106;44.706;18.310;2023-07-28T08:24:30;17.83;;;9.93;;
71317;SDS011;59106;44.706;18.310;2023-07-28T08:26:57;16.92;;;9.90;;
71317;SDS011;59106;44.706;18.310;2023-07-28T08:29:22;17.55;;;9.38;;
71317;SDS011;59106;44.706;18.310;2023-07-28T08:31:48;15.70;;;9.23;;
71317;SDS011;59106;44.706;18.310;2023-07-28T08:34:14;16.40;;;9.40;;
71317;SDS011;59106;44.706;18.310;2023-07-28T08:36:41;20.88;;;14.02;;
71317;SDS011;59106;44.706;18.310;2023-07-28T08:39:07;17.53;;;10.50;;
71317;SDS011;59106;44.706;18.310;2023-07-28T08:41:35;13.48;;;7.05;;
71317;SDS011;59106;44.706;18.310;2023-07-28T08:44:01;12.68;;;7.22;;
71317;SDS011;59106;44.706;18.310;2023-07-28T08:46:27;13.95;;;7.07;;
71317;SDS011;59106;44.706;18.310;2023-07-28T08:48:54;12.20;;;7.60;;
71317;SDS011;59106;44.706;18.310;2023-07-28T08:51:23;13.60;;;7.10;;
71317;SDS011;59106;44.706;18.310;2023-07-28T08:53:49;12.57;;;6.85;;
71317;SDS011;59106;44.706;18.310;2023-07-28T08:56:15;12.65;;;7.70;;
71317;SDS011;59106;44.706;18.310;2023-07-28T08:58:41;18.47;;;12.53;;
71317;SDS011;59106;44.706;18.310;2023-07-28T09:01:07;12.30;;;7.05;;
71317;SDS011;59106;44.706;18.310;2023-07-28T09:03:32;12.15;;;5.07;;
71317;SDS011;59106;44.706;18.310;2023-07-28T09:06:03;12.43;;;6.20;;
71317;SDS011;59106;44.706;18.310;2023-07-28T09:08:32;9.50;;;5.18;;
71317;SDS011;59106;44.706;18.310;2023-07-28T09:10:57;8.80;;;4.57;;
71317;SDS011;59106;44.706;18.310;2023-07-28T09:13:27;9.93;;;5.55;;
71317;SDS011;59106;44.706;18.310;2023-07-28T09:16:00;10.93;;;6.93;;
71317;SDS011;59106;44.706;18.310;2023-07-28T09:18:25;9.68;;;4.40;;
71317;SDS011;59106;44.706;18.310;2023-07-28T09:20:53;9.27;;;5.10;;
71317;SDS011;59106;44.706;18.310;2023-07-28T09:23:24;9.57;;;5.50;;
71317;SDS011;59106;44.706;18.310;2023-07-28T09:25:53;10.45;;;5.20;;
71317;SDS011;59106;44.706;18.310;2023-07-28T09:28:27;12.75;;;7.38;;
71317;SDS011;59106;44.706;18.310;2023-07-28T09:31:01;13.20;;;6.03;;
71317;SDS011;59106;44.706;18.310;2023-07-28T09:33:29;11.00;;;5.30;;
71317;SDS011;59106;44.706;18.310;2023-07-28T09:35:56;9.13;;;4.95;;
71317;SDS011;59106;44.706;18.310;2023-07-28T09:38:22;8.13;;;4.90;;
71317;SDS011;59106;44.706;18.310;2023-07-28T09:40:50;9.40;;;4.30;;
71317;SDS011;59106;44.706;18.310;2023-07-28T09:43:16;8.57;;;4.73;;
71317;SDS011;59106;44.706;18.310;2023-07-28T09:45:42;48.45;;;34.28;;
71317;SDS011;59106;44.706;18.310;2023-07-28T09:48:08;28.02;;;22.88;;
71317;SDS011;59106;44.706;18.310;2023-07-28T09:50:36;9.60;;;5.78;;
71317;SDS011;59106;44.706;18.310;2023-07-28T09:53:03;10.17;;;4.97;;
71317;SDS011;59106;44.706;18.310;2023-07-28T09:55:29;7.60;;;3.83;;
71317;SDS011;59106;44.706;18.310;2023-07-28T09:57:56;6.75;;;3.22;;
71317;SDS011;59106;44.706;18.310;2023-07-28T10:00:23;7.45;;;3.13;;
71317;SDS011;59106;44.706;18.310;2023-07-28T10:02:49;8.57;;;3.57;;
71317;SDS011;59106;44.706;18.310;2023-07-28T10:05:16;7.28;;;2.90;;
71317;SDS011;59106;44.706;18.310;2023-07-28T10:07:45;8.25;;;3.42;;
71317;SDS011;59106;44.706;18.310;2023-07-28T10:10:12;7.10;;;3.97;;
71317;SDS011;59106;44.706;18.310;2023-07-28T10:12:39;7.63;;;3.67;;
71317;SDS011;59106;44.706;18.310;2023-07-28T10:15:07;9.13;;;4.10;;
71317;SDS011;59106;44.706;18.310;2023-07-28T10:17:33;41.47;;;34.03;;
71317;SDS011;59106;44.706;18.310;2023-07-28T10:20:02;9.80;;;5.35;;
71317;SDS011;59106;44.706;18.310;2023-07-28T10:22:44;14.60;;;9.90;;
71317;SDS011;59106;44.706;18.310;2023-07-28T10:25:10;7.53;;;3.33;;
71317;SDS011;59106;44.706;18.310;2023-07-28T10:27:45;9.40;;;3.63;;
71317;SDS011;59106;44.706;18.310;2023-07-28T10:30:13;7.60;;;3.40;;
71317;SDS011;59106;44.706;18.310;2023-07-28T10:32:42;7.47;;;3.70;;
71317;SDS011;59106;44.706;18.310;2023-07-28T10:35:10;6.63;;;3.40;;
71317;SDS011;59106;44.706;18.310;2023-07-28T10:37:49;6.18;;;2.83;;
71317;SDS011;59106;44.706;18.310;2023-07-28T10:40:29;7.65;;;3.47;;
71317;SDS011;59106;44.706;18.310;2023-07-28T10:42:58;7.40;;;3.72;;
71317;SDS011;59106;44.706;18.310;2023-07-28T10:45:28;7.80;;;3.10;;
71317;SDS011;59106;44.706;18.310;2023-07-28T10:47:54;7.13;;;2.85;;
71317;SDS011;59106;44.706;18.310;2023-07-28T10:50:22;8.40;;;3.95;;
71317;SDS011;59106;44.706;18.310;2023-07-28T10:52:48;7.43;;;3.08;;
71317;SDS011;59106;44.706;18.310;2023-07-28T10:55:17;8.23;;;3.17;;
71317;SDS011;59106;44.706;18.310;2023-07-28T10:57:44;7.77;;;3.60;;
71317;SDS011;59106;44.706;18.310;2023-07-28T11:00:11;8.40;;;3.33;;
71317;SDS011;59106;44.706;18.310;2023-07-28T11:02:45;6.70;;;2.92;;
71317;SDS011;59106;44.706;18.310;2023-07-28T11:05:21;8.35;;;4.28;;
71317;SDS011;59106;44.706;18.310;2023-07-28T11:08:00;8.13;;;3.55;;
71317;SDS011;59106;44.706;18.310;2023-07-28T11:10:29;7.10;;;3.00;;
71317;SDS011;59106;44.706;18.310;2023-07-28T11:12:57;7.20;;;2.90;;
71317;SDS011;59106;44.706;18.310;2023-07-28T11:15:24;6.70;;;3.35;;
71317;SDS011;59106;44.706;18.310;2023-07-28T11:17:50;7.45;;;3.30;;
71317;SDS011;59106;44.706;18.310;2023-07-28T11:20:20;8.02;;;3.10;;
71317;SDS011;59106;44.706;18.310;2023-07-28T11:22:56;7.90;;;2.93;;
71317;SDS011;59106;44.706;18.310;2023-07-28T11:25:23;7.70;;;2.92;;
71317;SDS011;59106;44.706;18.310;2023-07-28T11:27:50;11.85;;;3.50;;
71317;SDS011;59106;44.706;18.310;2023-07-28T11:30:17;9.38;;;3.10;;
71317;SDS011;59106;44.706;18.310;2023-07-28T11:32:43;7.55;;;3.05;;
71317;SDS011;59106;44.706;18.310;2023-07-28T11:35:11;8.40;;;3.33;;
71317;SDS011;59106;44.706;18.310;2023-07-28T11:37:37;8.18;;;3.45;;
71317;SDS011;59106;44.706;18.310;2023-07-28T11:40:04;6.45;;;3.03;;
71317;SDS011;59106;44.706;18.310;2023-07-28T11:42:33;7.90;;;4.20;;
71317;SDS011;59106;44.706;18.310;2023-07-28T11:45:00;29.05;;;22.27;;
71317;SDS011;59106;44.706;18.310;2023-07-28T11:47:25;12.60;;;7.67;;
71317;SDS011;59106;44.706;18.310;2023-07-28T11:49:52;8.25;;;3.53;;
71317;SDS011;59106;44.706;18.310;2023-07-28T11:52:19;9.40;;;3.30;;
71317;SDS011;59106;44.706;18.310;2023-07-28T11:54:46;6.88;;;3.38;;
71317;SDS011;59106;44.706;18.310;2023-07-28T11:57:12;8.20;;;3.60;;
71317;SDS011;59106;44.706;18.310;2023-07-28T11:59:39;7.78;;;2.90;;
71317;SDS011;59106;44.706;18.310;2023-07-28T12:02:06;7.28;;;3.20;;
71317;SDS011;59106;44.706;18.310;2023-07-28T12:04:36;9.05;;;4.68;;
71317;SDS011;59106;44.706;18.310;2023-07-28T12:07:06;7.38;;;3.00;;
71317;SDS011;59106;44.706;18.310;2023-07-28T12:09:33;8.03;;;3.27;;
71317;SDS011;59106;44.706;18.310;2023-07-28T12:12:12;10.63;;;4.40;;
71317;SDS011;59106;44.706;18.310;2023-07-28T12:14:38;8.20;;;3.28;;
71317;SDS011;59106;44.706;18.310;2023-07-28T12:17:13;9.27;;;4.13;;
71317;SDS011;59106;44.706;18.310;2023-07-28T12:19:58;6.95;;;3.60;;
71317;SDS011;59106;44.706;18.310;2023-07-28T12:22:25;9.18;;;4.43;;
71317;SDS011;59106;44.706;18.310;2023-07-28T12:24:51;6.97;;;3.00;;
71317;SDS011;59106;44.706;18.310;2023-07-28T12:27:16;7.60;;;3.33;;
71317;SDS011;59106;44.706;18.310;2023-07-28T12:29:42;7.35;;;3.38;;
71317;SDS011;59106;44.706;18.310;2023-07-28T12:32:08;8.38;;;4.40;;
71317;SDS011;59106;44.706;18.310;2023-07-28T12:34:34;7.43;;;3.70;;
71317;SDS011;59106;44.706;18.310;2023-07-28T12:37:00;9.18;;;3.10;;
71317;SDS011;59106;44.706;18.310;2023-07-28T12:39:26;7.15;;;3.10;;
71317;SDS011;59106;44.706;18.310;2023-07-28T12:41:52;8.45;;;3.00;;
71317;SDS011;59106;44.706;18.310;2023-07-28T12:44:21;7.73;;;3.00;;
71317;SDS011;59106;44.706;18.310;2023-07-28T12:46:47;7.03;;;3.10;;
71317;SDS011;59106;44.706;18.310;2023-07-28T12:49:13;8.57;;;3.20;;
71317;SDS011;59106;44.706;18.310;2023-07-28T12:51:40;7.05;;;3.55;;
71317;SDS011;59106;44.706;18.310;2023-07-28T12:54:06;6.35;;;3.00;;
71317;SDS011;59106;44.706;18.310;2023-07-28T12:56:32;7.90;;;3.50;;
71317;SDS011;59106;44.706;18.310;2023-07-28T12:58:58;7.13;;;2.97;;
71317;SDS011;59106;44.706;18.310;2023-07-28T13:01:23;9.43;;;4.03;;
71317;SDS011;59106;44.706;18.310;2023-07-28T13:03:49;7.47;;;3.15;;
71317;SDS011;59106;44.706;18.310;2023-07-28T13:06:15;7.37;;;3.00;;
71317;SDS011;59106;44.706;18.310;2023-07-28T13:08:41;6.47;;;3.15;;
71317;SDS011;59106;44.706;18.310;2023-07-28T13:11:07;7.63;;;3.42;;
71317;SDS011;59106;44.706;18.310;2023-07-28T13:13:34;7.25;;;2.80;;
71317;SDS011;59106;44.706;18.310;2023-07-28T13:16:00;7.67;;;3.70;;
71317;SDS011;59106;44.706;18.310;2023-07-28T13:18:26;8.18;;;3.45;;
71317;SDS011;59106;44.706;18.310;2023-07-28T13:20:51;6.88;;;3.00;;
71317;SDS011;59106;44.706;18.310;2023-07-28T13:23:18;6.00;;;3.10;;
71317;SDS011;59106;44.706;18.310;2023-07-28T13:25:44;6.30;;;3.13;;
71317;SDS011;59106;44.706;18.310;2023-07-28T13:28:10;6.45;;;2.90;;
71317;SDS011;59106;44.706;18.310;2023-07-28T13:30:35;6.93;;;3.30;;
71317;SDS011;59106;44.706;18.310;2023-07-28T13:33:01;6.55;;;3.47;;
71317;SDS011;59106;44.706;18.310;2023-07-28T13:35:30;6.45;;;3.28;;
71317;SDS011;59106;44.706;18.310;2023-07-28T13:37:56;7.45;;;3.42;;
71317;SDS011;59106;44.706;18.310;2023-07-28T13:40:22;7.13;;;3.10;;
71317;SDS011;59106;44.706;18.310;2023-07-28T13:42:48;7.00;;;3.22;;
71317;SDS011;59106;44.706;18.310;2023-07-28T13:45:14;8.93;;;3.05;;
71317;SDS011;59106;44.706;18.310;2023-07-28T13:47:40;6.23;;;2.90;;
71317;SDS011;59106;44.706;18.310;2023-07-28T13:50:06;7.55;;;3.22;;
71317;SDS011;59106;44.706;18.310;2023-07-28T13:52:32;6.50;;;3.05;;
71317;SDS011;59106;44.706;18.310;2023-07-28T13:54:58;7.80;;;3.40;;
71317;SDS011;59106;44.706;18.310;2023-07-28T13:57:24;8.52;;;3.60;;
71317;SDS011;59106;44.706;18.310;2023-07-28T13:59:50;6.97;;;3.30;;
71317;SDS011;59106;44.706;18.310;2023-07-28T14:02:16;6.28;;;3.50;;
71317;SDS011;59106;44.706;18.310;2023-07-28T14:04:43;7.90;;;3.50;;
71317;SDS011;59106;44.706;18.310;2023-07-28T14:07:09;6.22;;;3.33;;
71317;SDS011;59106;44.706;18.310;2023-07-28T14:09:35;8.20;;;4.00;;
71317;SDS011;59106;44.706;18.310;2023-07-28T14:12:03;7.87;;;3.70;;
71317;SDS011;59106;44.706;18.310;2023-07-28T14:14:29;8.75;;;3.80;;
71317;SDS011;59106;44.706;18.310;2023-07-28T14:16:55;8.88;;;3.33;;
71317;SDS011;59106;44.706;18.310;2023-07-28T14:19:21;7.00;;;3.10;;
71317;SDS011;59106;44.706;18.310;2023-07-28T14:21:47;6.87;;;3.30;;
71317;SDS011;59106;44.706;18.310;2023-07-28T14:24:13;6.57;;;3.83;;
71317;SDS011;59106;44.706;18.310;2023-07-28T14:26:39;9.77;;;6.03;;
71317;SDS011;59106;44.706;18.310;2023-07-28T14:29:05;11.50;;;4.77;;
71317;SDS011;59106;44.706;18.310;2023-07-28T14:31:31;14.13;;;5.18;;
71317;SDS011;59106;44.706;18.310;2023-07-28T14:33:57;8.93;;;3.70;;
71317;SDS011;59106;44.706;18.310;2023-07-28T14:36:23;6.57;;;3.40;;
71317;SDS011;59106;44.706;18.310;2023-07-28T14:38:49;9.30;;;3.80;;